sensor_id;sensor_type;location;lat;lon;timestamp;pressure;altitude;pressure_sealevel;temperature;humidity
61345;BME280;47216;42.656;23.232;2023-03-25T00:00:48;93633.50;;;8.63;65.40
61345;BME280;47216;42.656;23.232;2023-03-25T00:03:19;93631.63;;;8.59;65.93
61345;BME280;47216;42.656;23.232;2023-03-25T00:05:46;93632.41;;;8.59;66.30
61345;BME280;47216;42.656;23.232;2023-03-25T00:08:13;93634.78;;;8.61;66.46
61345;BME280;47216;42.656;23.232;2023-03-25T00:10:41;93639.91;;;8.56;66.09
61345;BME280;47216;42.656;23.232;2023-03-25T00:13:08;93629.91;;;8.48;65.92
61345;BME280;47216;42.656;23.232;2023-03-25T00:15:40;93624.25;;;8.51;66.21
61345;BME280;47216;42.656;23.232;2023-03-25T00:18:10;93620.50;;;8.41;66.34
61345;BME280;47216;42.656;23.232;2023-03-25T00:20:38;93618.91;;;8.40;66.11
61345;BME280;47216;42.656;23.232;2023-03-25T00:23:06;93620.50;;;8.41;66.34
61345;BME280;47216;42.656;23.232;2023-03-25T00:25:33;93615.72;;;8.38;66.52
61345;BME280;47216;42.656;23.232;2023-03-25T00:27:59;93618.75;;;8.30;66.84
61345;BME280;47216;42.656;23.232;2023-03-25T00:30:27;93610.41;;;8.28;67.02
61345;BME280;47216;42.656;23.232;2023-03-25T00:32:54;93606.78;;;8.29;66.39
61345;BME280;47216;42.656;23.232;2023-03-25T00:35:26;93607.31;;;8.31;66.81
61345;BME280;47216;42.656;23.232;2023-03-25T00:37:54;93611.97;;;8.29;67.20
61345;BME280;47216;42.656;23.232;2023-03-25T00:40:25;93613.63;;;8.35;66.88
61345;BME280;47216;42.656;23.232;2023-03-25T00:42:52;93613.06;;;8.33;67.04
61345;BME280;47216;42.656;23.232;2023-03-25T00:45:19;93613.56;;;8.30;67.34
61345;BME280;47216;42.656;23.232;2023-03-25T00:47:47;93610.09;;;8.25;66.85
61345;BME280;47216;42.656;23.232;2023-03-25T00:50:14;93613.59;;;8.13;67.75
61345;BME280;47216;42.656;23.232;2023-03-25T00:52:41;93602.72;;;7.99;68.77
61345;BME280;47216;42.656;23.232;2023-03-25T00:55:09;93600.50;;;8.08;68.46
61345;BME280;47216;42.656;23.232;2023-03-25T00:57:36;93602.38;;;8.13;68.24
61345;BME280;47216;42.656;23.232;2023-03-25T01:00:05;93594.75;;;8.06;67.89
61345;BME280;47216;42.656;23.232;2023-03-25T01:02:33;93588.22;;;8.04;68.41
61345;BME280;47216;42.656;23.232;2023-03-25T01:05:00;93590.97;;;7.97;68.42
61345;BME280;47216;42.656;23.232;2023-03-25T01:07:26;93588.94;;;7.99;69.20
61345;BME280;47216;42.656;23.232;2023-03-25T01:09:56;93580.78;;;7.90;68.83
61345;BME280;47216;42.656;23.232;2023-03-25T01:12:25;93579.75;;;7.91;69.42
61345;BME280;47216;42.656;23.232;2023-03-25T01:14:52;93572.50;;;7.93;68.98
61345;BME280;47216;42.656;23.232;2023-03-25T01:17:19;93573.63;;;7.97;69.18
61345;BME280;47216;42.656;23.232;2023-03-25T01:19:46;93572.19;;;8.07;68.74
61345;BME280;47216;42.656;23.232;2023-03-25T01:22:13;93573.75;;;8.08;68.47
61345;BME280;47216;42.656;23.232;2023-03-25T01:24:40;93562.88;;;8.11;68.42
61345;BME280;47216;42.656;23.232;2023-03-25T01:27:06;93559.94;;;8.02;68.43
61345;BME280;47216;42.656;23.232;2023-03-25T01:29:34;93563.06;;;8.04;68.12
61345;BME280;47216;42.656;23.232;2023-03-25T01:32:01;93548.66;;;7.96;68.16
61345;BME280;47216;42.656;23.232;2023-03-25T01:34:28;93554.28;;;7.88;68.93
61345;BME280;47216;42.656;23.232;2023-03-25T01:36:57;93550.97;;;7.93;68.21
61345;BME280;47216;42.656;23.232;2023-03-25T01:39:23;93544.03;;;7.98;68.36
61345;BME280;47216;42.656;23.232;2023-03-25T01:41:50;93547.72;;;8.03;68.23
61345;BME280;47216;42.656;23.232;2023-03-25T01:47:24;93541.59;;;7.92;68.54
61345;BME280;47216;42.656;23.232;2023-03-25T01:49:52;93541.75;;;7.85;68.72
61345;BME280;47216;42.656;23.232;2023-03-25T01:52:23;93536.25;;;7.82;68.49
61345;BME280;47216;42.656;23.232;2023-03-25T01:54:51;93545.47;;;7.72;68.95
61345;BME280;47216;42.656;23.232;2023-03-25T01:57:20;93536.44;;;7.75;68.70
61345;BME280;47216;42.656;23.232;2023-03-25T01:59:49;93541.06;;;7.73;69.14
61345;BME280;47216;42.656;23.232;2023-03-25T02:02:17;93535.81;;;7.68;69.84
61345;BME280;47216;42.656;23.232;2023-03-25T02:04:51;93537.91;;;7.71;69.25
61345;BME280;47216;42.656;23.232;2023-03-25T02:07:27;93535.56;;;7.69;69.68
61345;BME280;47216;42.656;23.232;2023-03-25T02:09:58;93537.28;;;7.64;69.71
61345;BME280;47216;42.656;23.232;2023-03-25T02:12:26;93536.03;;;7.66;69.48
61345;BME280;47216;42.656;23.232;2023-03-25T02:14:53;93536.81;;;7.67;69.74
61345;BME280;47216;42.656;23.232;2023-03-25T02:17:26;93532.09;;;7.64;69.43
61345;BME280;47216;42.656;23.232;2023-03-25T02:20:18;93524.00;;;7.60;69.16
61345;BME280;47216;42.656;23.232;2023-03-25T02:29:28;93520.63;;;7.60;69.08
61345;BME280;47216;42.656;23.232;2023-03-25T02:32:15;93523.69;;;7.56;69.25
61345;BME280;47216;42.656;23.232;2023-03-25T02:35:04;93519.22;;;7.52;69.53
61345;BME280;47216;42.656;23.232;2023-03-25T02:38:07;93525.97;;;7.53;69.47
61345;BME280;47216;42.656;23.232;2023-03-25T02:40:44;93512.91;;;7.48;69.55
61345;BME280;47216;42.656;23.232;2023-03-25T02:43:16;93505.38;;;7.46;69.88
61345;BME280;47216;42.656;23.232;2023-03-25T02:45:46;93510.66;;;7.51;69.26
61345;BME280;47216;42.656;23.232;2023-03-25T02:48:19;93505.13;;;7.48;69.89
61345;BME280;47216;42.656;23.232;2023-03-25T02:50:49;93499.94;;;7.48;69.20
61345;BME280;47216;42.656;23.232;2023-03-25T02:53:24;93504.75;;;7.56;69.79
61345;BME280;47216;42.656;23.232;2023-03-25T02:55:55;93521.66;;;7.58;69.11
61345;BME280;47216;42.656;23.232;2023-03-25T02:58:25;93504.59;;;7.63;69.27
61345;BME280;47216;42.656;23.232;2023-03-25T03:00:54;93504.50;;;7.57;69.70
61345;BME280;47216;42.656;23.232;2023-03-25T03:03:23;93501.91;;;7.57;68.93
61345;BME280;47216;42.656;23.232;2023-03-25T03:05:52;93511.91;;;7.66;69.26
61345;BME280;47216;42.656;23.232;2023-03-25T03:08:56;93504.88;;;7.66;69.54
61345;BME280;47216;42.656;23.232;2023-03-25T03:11:27;93496.72;;;7.57;69.39
61345;BME280;47216;42.656;23.232;2023-03-25T03:14:00;93494.59;;;7.54;68.98
61345;BME280;47216;42.656;23.232;2023-03-25T03:16:33;93488.63;;;7.54;69.29
61345;BME280;47216;42.656;23.232;2023-03-25T03:19:10;93498.47;;;7.52;69.18
61345;BME280;47216;42.656;23.232;2023-03-25T03:21:49;93488.09;;;7.52;69.59
61345;BME280;47216;42.656;23.232;2023-03-25T03:24:26;93500.63;;;7.60;69.43
61345;BME280;47216;42.656;23.232;2023-03-25T03:26:58;93510.56;;;7.63;69.63
61345;BME280;47216;42.656;23.232;2023-03-25T03:29:28;93509.31;;;7.66;68.79
61345;BME280;47216;42.656;23.232;2023-03-25T03:32:00;93508.41;;;7.60;69.06
61345;BME280;47216;42.656;23.232;2023-03-25T03:34:33;93507.56;;;7.54;69.44
61345;BME280;47216;42.656;23.232;2023-03-25T03:37:06;93514.19;;;7.45;69.03
61345;BME280;47216;42.656;23.232;2023-03-25T03:39:37;93512.22;;;7.35;69.39
61345;BME280;47216;42.656;23.232;2023-03-25T03:42:08;93513.56;;;7.38;69.90
61345;BME280;47216;42.656;23.232;2023-03-25T03:44:40;93508.75;;;7.30;70.23
61345;BME280;47216;42.656;23.232;2023-03-25T03:47:12;93520.56;;;7.38;70.15
61345;BME280;47216;42.656;23.232;2023-03-25T03:49:43;93516.53;;;7.30;69.91
61345;BME280;47216;42.656;23.232;2023-03-25T03:52:14;93525.81;;;7.26;70.40
61345;BME280;47216;42.656;23.232;2023-03-25T03:54:46;93526.41;;;7.16;70.71
61345;BME280;47216;42.656;23.232;2023-03-25T03:57:18;93521.91;;;7.11;70.55
61345;BME280;47216;42.656;23.232;2023-03-25T03:59:50;93517.22;;;7.08;70.79
61345;BME280;47216;42.656;23.232;2023-03-25T04:02:23;93519.25;;;7.06;71.12
61345;BME280;47216;42.656;23.232;2023-03-25T04:04:52;93513.19;;;7.01;71.14
61345;BME280;47216;42.656;23.232;2023-03-25T04:07:21;93514.59;;;6.91;71.38
61345;BME280;47216;42.656;23.232;2023-03-25T04:09:55;93511.13;;;6.86;71.72
61345;BME280;47216;42.656;23.232;2023-03-25T04:12:28;93513.63;;;6.81;71.58
61345;BME280;47216;42.656;23.232;2023-03-25T04:15:00;93513.63;;;6.81;72.29
61345;BME280;47216;42.656;23.232;2023-03-25T04:17:27;93506.25;;;6.89;72.10
61345;BME280;47216;42.656;23.232;2023-03-25T04:19:57;93503.34;;;6.86;71.80
61345;BME280;47216;42.656;23.232;2023-03-25T04:22:24;93505.34;;;6.96;71.90
61345;BME280;47216;42.656;23.232;2023-03-25T04:24:53;93500.00;;;7.02;71.63
61345;BME280;47216;42.656;23.232;2023-03-25T04:27:20;93502.75;;;7.12;70.86
61345;BME280;47216;42.656;23.232;2023-03-25T04:29:48;93501.66;;;7.25;71.04
61345;BME280;47216;42.656;23.232;2023-03-25T04:32:16;93505.06;;;7.26;70.67
61345;BME280;47216;42.656;23.232;2023-03-25T04:34:43;93500.44;;;7.28;70.54
61345;BME280;47216;42.656;23.232;2023-03-25T04:37:11;93511.50;;;7.23;70.45
61345;BME280;47216;42.656;23.232;2023-03-25T04:39:38;93515.88;;;7.23;70.59
61345;BME280;47216;42.656;23.232;2023-03-25T04:42:06;93513.41;;;7.28;70.92
61345;BME280;47216;42.656;23.232;2023-03-25T04:44:38;93516.53;;;7.30;70.80
61345;BME280;47216;42.656;23.232;2023-03-25T04:47:06;93520.94;;;7.29;70.42
61345;BME280;47216;42.656;23.232;2023-03-25T04:49:33;93521.72;;;7.30;71.26
61345;BME280;47216;42.656;23.232;2023-03-25T04:52:00;93528.00;;;7.34;70.88
61345;BME280;47216;42.656;23.232;2023-03-25T04:54:28;93528.78;;;7.34;70.73
61345;BME280;47216;42.656;23.232;2023-03-25T04:56:55;93519.91;;;7.47;70.65
61345;BME280;47216;42.656;23.232;2023-03-25T04:59:24;93522.09;;;7.55;70.64
61345;BME280;47216;42.656;23.232;2023-03-25T05:01:51;93520.63;;;7.60;70.51
61345;BME280;47216;42.656;23.232;2023-03-25T05:04:18;93516.06;;;7.67;71.25
61345;BME280;47216;42.656;23.232;2023-03-25T05:06:47;93518.50;;;7.73;71.06
61345;BME280;47216;42.656;23.232;2023-03-25T05:09:17;93516.78;;;7.79;70.50
61345;BME280;47216;42.656;23.232;2023-03-25T05:11:45;93509.59;;;7.86;70.53
61345;BME280;47216;42.656;23.232;2023-03-25T05:14:13;93511.31;;;7.97;70.31
61345;BME280;47216;42.656;23.232;2023-03-25T05:16:42;93521.81;;;8.08;70.23
61345;BME280;47216;42.656;23.232;2023-03-25T05:19:09;93519.59;;;8.16;69.75
61345;BME280;47216;42.656;23.232;2023-03-25T05:21:37;93521.31;;;8.28;69.52
61345;BME280;47216;42.656;23.232;2023-03-25T05:24:06;93521.44;;;8.38;70.47
61345;BME280;47216;42.656;23.232;2023-03-25T05:26:34;93515.53;;;8.43;70.56
61345;BME280;47216;42.656;23.232;2023-03-25T05:29:03;93515.66;;;8.53;70.45
61345;BME280;47216;42.656;23.232;2023-03-25T05:31:30;93509.63;;;8.69;70.28
61345;BME280;47216;42.656;23.232;2023-03-25T05:33:58;93514.69;;;8.81;69.83
61345;BME280;47216;42.656;23.232;2023-03-25T05:36:25;93501.22;;;8.89;69.77
61345;BME280;47216;42.656;23.232;2023-03-25T05:38:52;93509.41;;;9.03;69.68
61345;BME280;47216;42.656;23.232;2023-03-25T05:41:20;93515.28;;;9.15;69.52
61345;BME280;47216;42.656;23.232;2023-03-25T05:43:57;93524.25;;;9.30;68.66
61345;BME280;47216;42.656;23.232;2023-03-25T05:46:25;93522.53;;;9.40;68.85
61345;BME280;47216;42.656;23.232;2023-03-25T05:48:52;93516.09;;;9.53;67.89
61345;BME280;47216;42.656;23.232;2023-03-25T05:51:21;93525.56;;;9.64;68.05
61345;BME280;47216;42.656;23.232;2023-03-25T05:53:48;93521.72;;;9.77;68.70
61345;BME280;47216;42.656;23.232;2023-03-25T05:56:15;93516.63;;;9.87;67.58
61345;BME280;47216;42.656;23.232;2023-03-25T05:58:42;93520.13;;;10.08;66.92
61345;BME280;47216;42.656;23.232;2023-03-25T06:01:09;93518.91;;;10.21;67.15
61345;BME280;47216;42.656;23.232;2023-03-25T06:03:38;93516.16;;;10.38;64.57
61345;BME280;47216;42.656;23.232;2023-03-25T06:06:06;93514.09;;;10.50;63.12
61345;BME280;47216;42.656;23.232;2023-03-25T06:08:39;93513.63;;;10.64;62.65
61345;BME280;47216;42.656;23.232;2023-03-25T06:11:06;93511.34;;;10.78;61.95
61345;BME280;47216;42.656;23.232;2023-03-25T06:13:33;93506.41;;;10.86;61.40
61345;BME280;47216;42.656;23.232;2023-03-25T06:16:04;93501.44;;;10.90;61.66
61345;BME280;47216;42.656;23.232;2023-03-25T06:18:31;93496.28;;;11.00;61.56
61345;BME280;47216;42.656;23.232;2023-03-25T06:20:58;93497.59;;;11.08;61.83
61345;BME280;47216;42.656;23.232;2023-03-25T06:23:24;93494.19;;;11.12;61.68
61345;BME280;47216;42.656;23.232;2023-03-25T06:25:53;93491.34;;;11.14;61.21
61345;BME280;47216;42.656;23.232;2023-03-25T06:28:23;93500.75;;;11.30;61.21
61345;BME280;47216;42.656;23.232;2023-03-25T06:30:49;93500.50;;;11.47;60.91
61345;BME280;47216;42.656;23.232;2023-03-25T06:33:16;93498.66;;;11.63;60.02
61345;BME280;47216;42.656;23.232;2023-03-25T06:35:46;93499.19;;;11.70;59.73
61345;BME280;47216;42.656;23.232;2023-03-25T06:38:18;93510.19;;;11.88;59.39
61345;BME280;47216;42.656;23.232;2023-03-25T06:40:45;93503.88;;;11.94;58.77
61345;BME280;47216;42.656;23.232;2023-03-25T06:43:14;93508.06;;;11.90;59.40
61345;BME280;47216;42.656;23.232;2023-03-25T06:45:41;93507.50;;;12.08;58.57
61345;BME280;47216;42.656;23.232;2023-03-25T06:48:08;93506.94;;;12.27;57.90
61345;BME280;47216;42.656;23.232;2023-03-25T06:50:35;93517.38;;;12.37;57.54
61345;BME280;47216;42.656;23.232;2023-03-25T06:53:01;93517.94;;;12.34;57.88
61345;BME280;47216;42.656;23.232;2023-03-25T06:55:28;93518.69;;;12.39;58.05
61345;BME280;47216;42.656;23.232;2023-03-25T06:57:56;93522.06;;;12.50;57.10
61345;BME280;47216;42.656;23.232;2023-03-25T07:00:24;93518.38;;;12.51;56.93
61345;BME280;47216;42.656;23.232;2023-03-25T07:02:52;93523.56;;;12.67;56.91
61345;BME280;47216;42.656;23.232;2023-03-25T07:05:20;93519.84;;;12.73;55.97
61345;BME280;47216;42.656;23.232;2023-03-25T07:07:46;93528.22;;;12.75;56.61
61345;BME280;47216;42.656;23.232;2023-03-25T07:10:13;93523.47;;;12.82;57.05
61345;BME280;47216;42.656;23.232;2023-03-25T07:12:40;93517.66;;;12.95;56.23
61345;BME280;47216;42.656;23.232;2023-03-25T07:15:07;93517.13;;;12.98;56.13
61345;BME280;47216;42.656;23.232;2023-03-25T07:17:36;93512.41;;;13.00;56.63
61345;BME280;47216;42.656;23.232;2023-03-25T07:20:03;93509.19;;;13.14;56.24
61345;BME280;47216;42.656;23.232;2023-03-25T07:22:31;93509.72;;;13.16;55.90
61345;BME280;47216;42.656;23.232;2023-03-25T07:24:57;93507.63;;;13.13;57.36
61345;BME280;47216;42.656;23.232;2023-03-25T07:27:24;93509.66;;;13.31;57.03
61345;BME280;47216;42.656;23.232;2023-03-25T07:29:51;93512.22;;;13.36;56.13
61345;BME280;47216;42.656;23.232;2023-03-25T07:32:18;93507.75;;;13.37;56.26
61345;BME280;47216;42.656;23.232;2023-03-25T07:34:46;93510.50;;;13.61;56.48
61345;BME280;47216;42.656;23.232;2023-03-25T07:37:13;93504.09;;;13.72;56.04
61345;BME280;47216;42.656;23.232;2023-03-25T07:39:40;93508.19;;;13.83;55.74
61345;BME280;47216;42.656;23.232;2023-03-25T07:42:07;93505.56;;;13.83;55.79
61345;BME280;47216;42.656;23.232;2023-03-25T07:44:33;93499.94;;;14.00;55.26
61345;BME280;47216;42.656;23.232;2023-03-25T07:47:00;93496.94;;;14.12;55.62
61345;BME280;47216;42.656;23.232;2023-03-25T07:49:27;93498.41;;;14.18;55.80
61345;BME280;47216;42.656;23.232;2023-03-25T07:51:55;93496.59;;;14.19;55.97
61345;BME280;47216;42.656;23.232;2023-03-25T07:54:22;93491.34;;;14.43;54.78
61345;BME280;47216;42.656;23.232;2023-03-25T07:56:48;93476.75;;;14.61;55.92
61345;BME280;47216;42.656;23.232;2023-03-25T07:59:17;93476.63;;;14.71;54.06
61345;BME280;47216;42.656;23.232;2023-03-25T08:15:26;93462.75;;;15.93;51.92
61345;BME280;47216;42.656;23.232;2023-03-25T08:17:53;93463.94;;;16.01;52.23
61345;BME280;47216;42.656;23.232;2023-03-25T08:20:19;93460.16;;;16.07;51.72
61345;BME280;47216;42.656;23.232;2023-03-25T08:22:46;93462.56;;;16.03;51.57
61345;BME280;47216;42.656;23.232;2023-03-25T08:25:13;93465.31;;;16.12;51.61
61345;BME280;47216;42.656;23.232;2023-03-25T08:27:40;93467.94;;;16.26;50.87
61345;BME280;47216;42.656;23.232;2023-03-25T08:30:08;93468.16;;;16.15;51.25
61345;BME280;47216;42.656;23.232;2023-03-25T08:32:36;93463.84;;;16.20;51.43
61345;BME280;47216;42.656;23.232;2023-03-25T08:35:05;93459.88;;;16.08;51.92
61345;BME280;47216;42.656;23.232;2023-03-25T08:37:33;93449.53;;;16.12;51.00
61345;BME280;47216;42.656;23.232;2023-03-25T08:40:00;93442.34;;;16.31;50.95
61345;BME280;47216;42.656;23.232;2023-03-25T08:42:27;93445.16;;;16.21;50.48
61345;BME280;47216;42.656;23.232;2023-03-25T08:44:53;93439.69;;;16.17;50.86
61345;BME280;47216;42.656;23.232;2023-03-25T08:47:20;93448.16;;;16.28;51.17
61345;BME280;47216;42.656;23.232;2023-03-25T08:49:48;93439.38;;;16.47;50.69
61345;BME280;47216;42.656;23.232;2023-03-25T08:52:15;93438.13;;;16.44;50.47
61345;BME280;47216;42.656;23.232;2023-03-25T08:54:42;93445.84;;;16.54;53.92
61345;BME280;47216;42.656;23.232;2023-03-25T08:57:09;93440.16;;;16.61;50.52
61345;BME280;47216;42.656;23.232;2023-03-25T08:59:35;93441.00;;;16.70;50.57
61345;BME280;47216;42.656;23.232;2023-03-25T09:02:02;93433.31;;;16.88;49.99
61345;BME280;47216;42.656;23.232;2023-03-25T09:04:30;93439.56;;;16.92;50.21
61345;BME280;47216;42.656;23.232;2023-03-25T09:06:58;93433.19;;;16.93;50.24
61345;BME280;47216;42.656;23.232;2023-03-25T09:09:25;93426.22;;;17.11;50.07
61345;BME280;47216;42.656;23.232;2023-03-25T09:11:51;93424.41;;;16.97;49.39
61345;BME280;47216;42.656;23.232;2023-03-25T09:14:18;93420.56;;;17.17;49.27
61345;BME280;47216;42.656;23.232;2023-03-25T09:16:45;93419.94;;;17.20;48.86
61345;BME280;47216;42.656;23.232;2023-03-25T09:19:12;93413.00;;;17.25;48.83
61345;BME280;47216;42.656;23.232;2023-03-25T09:21:39;93417.19;;;17.48;48.22
61345;BME280;47216;42.656;23.232;2023-03-25T09:24:08;93425.09;;;17.48;47.87
61345;BME280;47216;42.656;23.232;2023-03-25T09:26:35;93417.06;;;17.53;47.57
61345;BME280;47216;42.656;23.232;2023-03-25T09:29:02;93417.06;;;17.53;47.73
61345;BME280;47216;42.656;23.232;2023-03-25T09:31:29;93419.81;;;17.48;48.15
61345;BME280;47216;42.656;23.232;2023-03-25T09:33:56;93415.56;;;17.38;48.11
61345;BME280;47216;42.656;23.232;2023-03-25T09:36:23;93412.41;;;17.50;48.19
61345;BME280;47216;42.656;23.232;2023-03-25T09:38:49;93406.84;;;17.60;48.40
61345;BME280;47216;42.656;23.232;2023-03-25T09:41:31;93407.25;;;17.68;48.18
61345;BME280;47216;42.656;23.232;2023-03-25T09:44:06;93405.88;;;17.79;47.56
61345;BME280;47216;42.656;23.232;2023-03-25T09:46:38;93408.50;;;17.79;47.22
61345;BME280;47216;42.656;23.232;2023-03-25T09:49:13;93411.75;;;17.98;47.12
61345;BME280;47216;42.656;23.232;2023-03-25T09:51:41;93410.19;;;17.97;46.72
61345;BME280;47216;42.656;23.232;2023-03-25T09:54:16;93411.00;;;18.06;46.51
61345;BME280;47216;42.656;23.232;2023-03-25T09:56:47;93402.16;;;18.02;46.37
61345;BME280;47216;42.656;23.232;2023-03-25T09:59:17;93406.19;;;18.09;46.50
61345;BME280;47216;42.656;23.232;2023-03-25T10:01:51;93398.28;;;18.09;47.27
61345;BME280;47216;42.656;23.232;2023-03-25T10:04:39;93397.88;;;18.24;46.46
61345;BME280;47216;42.656;23.232;2023-03-25T10:07:20;93392.56;;;18.15;44.89
61345;BME280;47216;42.656;23.232;2023-03-25T10:09:59;93384.81;;;18.19;45.23
61345;BME280;47216;42.656;23.232;2023-03-25T10:12:36;93389.19;;;18.32;45.23
61345;BME280;47216;42.656;23.232;2023-03-25T10:15:13;93374.78;;;18.38;44.86
61345;BME280;47216;42.656;23.232;2023-03-25T10:17:51;93367.94;;;18.46;45.13
61345;BME280;47216;42.656;23.232;2023-03-25T10:20:26;93360.81;;;18.55;45.92
61345;BME280;47216;42.656;23.232;2023-03-25T10:23:04;93360.53;;;18.65;45.58
61345;BME280;47216;42.656;23.232;2023-03-25T10:25:35;93357.78;;;18.79;44.41
61345;BME280;47216;42.656;23.232;2023-03-25T10:28:13;93356.97;;;18.87;44.93
61345;BME280;47216;42.656;23.232;2023-03-25T10:30:46;93348.75;;;18.89;44.49
61345;BME280;47216;42.656;23.232;2023-03-25T10:33:17;93347.53;;;18.95;44.25
61345;BME280;47216;42.656;23.232;2023-03-25T10:35:47;93346.41;;;18.96;44.63
61345;BME280;47216;42.656;23.232;2023-03-25T10:38:16;93339.25;;;19.05;45.80
61345;BME280;47216;42.656;23.232;2023-03-25T10:40:46;93339.84;;;19.28;42.84
61345;BME280;47216;42.656;23.232;2023-03-25T10:43:22;93335.03;;;19.30;42.56
61345;BME280;47216;42.656;23.232;2023-03-25T10:45:55;93329.44;;;19.32;43.52
61345;BME280;47216;42.656;23.232;2023-03-25T10:48:24;93333.16;;;19.31;44.77
61345;BME280;47216;42.656;23.232;2023-03-25T10:50:58;93328.03;;;19.35;44.59
61345;BME280;47216;42.656;23.232;2023-03-25T10:53:27;93326.91;;;19.53;44.02
61345;BME280;47216;42.656;23.232;2023-03-25T10:55:58;93324.66;;;19.64;43.42
61345;BME280;47216;42.656;23.232;2023-03-25T10:58:30;93320.31;;;19.68;42.59
61345;BME280;47216;42.656;23.232;2023-03-25T11:00:58;93314.25;;;19.67;43.32
61345;BME280;47216;42.656;23.232;2023-03-25T11:03:29;93311.41;;;19.81;42.33
61345;BME280;47216;42.656;23.232;2023-03-25T11:05:58;93308.63;;;19.78;43.47
61345;BME280;47216;42.656;23.232;2023-03-25T11:08:25;93308.81;;;20.02;42.19
61345;BME280;47216;42.656;23.232;2023-03-25T11:10:53;93294.13;;;20.13;41.36
61345;BME280;47216;42.656;23.232;2023-03-25T11:13:23;93298.00;;;20.16;41.42
61345;BME280;47216;42.656;23.232;2023-03-25T11:15:53;93295.66;;;20.14;41.83
61345;BME280;47216;42.656;23.232;2023-03-25T11:18:25;93290.56;;;20.09;41.88
61345;BME280;47216;42.656;23.232;2023-03-25T11:20:56;93295.50;;;20.20;41.38
61345;BME280;47216;42.656;23.232;2023-03-25T11:23:25;93282.13;;;20.16;41.76
61345;BME280;47216;42.656;23.232;2023-03-25T11:25:54;93285.53;;;20.17;40.59
61345;BME280;47216;42.656;23.232;2023-03-25T11:28:33;93293.47;;;20.17;40.65
61345;BME280;47216;42.656;23.232;2023-03-25T11:31:08;93275.53;;;20.01;39.02
61345;BME280;47216;42.656;23.232;2023-03-25T11:33:36;93277.06;;;20.02;40.07
61345;BME280;47216;42.656;23.232;2023-03-25T11:36:11;93266.09;;;20.12;40.44
61345;BME280;47216;42.656;23.232;2023-03-25T11:38:39;93263.09;;;20.23;40.21
61345;BME280;47216;42.656;23.232;2023-03-25T11:41:06;93260.28;;;20.19;37.70
61345;BME280;47216;42.656;23.232;2023-03-25T11:43:35;93266.09;;;20.12;37.75
61345;BME280;47216;42.656;23.232;2023-03-25T11:46:12;93258.16;;;20.12;38.69
61345;BME280;47216;42.656;23.232;2023-03-25T11:48:41;93257.56;;;20.07;37.42
61345;BME280;47216;42.656;23.232;2023-03-25T11:51:12;93253.25;;;20.02;38.03
61345;BME280;47216;42.656;23.232;2023-03-25T11:53:43;93254.28;;;20.10;37.99
61345;BME280;47216;42.656;23.232;2023-03-25T11:56:14;93245.84;;;20.17;37.60
61345;BME280;47216;42.656;23.232;2023-03-25T11:58:45;93242.19;;;20.00;38.11
61345;BME280;47216;42.656;23.232;2023-03-25T12:01:23;93253.16;;;19.90;37.63
61345;BME280;47216;42.656;23.232;2023-03-25T12:03:51;93244.78;;;19.88;38.49
61345;BME280;47216;42.656;23.232;2023-03-25T12:06:22;93244.78;;;19.88;37.88
61345;BME280;47216;42.656;23.232;2023-03-25T12:08:51;93241.13;;;19.71;38.08
61345;BME280;47216;42.656;23.232;2023-03-25T12:11:19;93246.69;;;19.79;38.20
61345;BME280;47216;42.656;23.232;2023-03-25T12:14:03;93253.31;;;19.55;38.16
61345;BME280;47216;42.656;23.232;2023-03-25T12:16:36;93238.34;;;19.59;38.54
61345;BME280;47216;42.656;23.232;2023-03-25T12:19:15;93244.75;;;19.49;38.88
61345;BME280;47216;42.656;23.232;2023-03-25T12:22:03;93245.75;;;19.36;38.24
61345;BME280;47216;42.656;23.232;2023-03-25T12:24:45;93243.75;;;19.33;38.64
61345;BME280;47216;42.656;23.232;2023-03-25T12:27:27;93242.16;;;19.41;38.75
61345;BME280;47216;42.656;23.232;2023-03-25T12:30:05;93251.69;;;19.24;38.78
61345;BME280;47216;42.656;23.232;2023-03-25T12:32:44;93245.91;;;19.40;39.04
61345;BME280;47216;42.656;23.232;2023-03-25T12:35:24;93244.75;;;19.49;38.77
61345;BME280;47216;42.656;23.232;2023-03-25T12:38:12;93239.47;;;19.49;38.26
61345;BME280;47216;42.656;23.232;2023-03-25T12:40:55;93246.13;;;19.64;38.47
61345;BME280;47216;42.656;23.232;2023-03-25T12:43:30;93237.84;;;19.66;38.17
61345;BME280;47216;42.656;23.232;2023-03-25T12:46:12;93231.78;;;19.65;37.93
61345;BME280;47216;42.656;23.232;2023-03-25T12:48:54;93243.47;;;19.64;38.15
61345;BME280;47216;42.656;23.232;2023-03-25T12:51:31;93240.81;;;19.64;38.01
61345;BME280;47216;42.656;23.232;2023-03-25T12:54:12;93231.50;;;19.58;37.92
61345;BME280;47216;42.656;23.232;2023-03-25T12:56:46;93234.94;;;19.50;37.99
61345;BME280;47216;42.656;23.232;2023-03-25T12:59:36;93239.50;;;19.41;37.60
61345;BME280;47216;42.656;23.232;2023-03-25T13:02:19;93238.56;;;19.45;38.28
61345;BME280;47216;42.656;23.232;2023-03-25T13:05:02;93239.81;;;19.48;38.21
61345;BME280;47216;42.656;23.232;2023-03-25T13:07:34;93244.34;;;19.39;39.27
61345;BME280;47216;42.656;23.232;2023-03-25T13:10:06;93237.97;;;19.40;39.01
61345;BME280;47216;42.656;23.232;2023-03-25T13:12:41;93243.91;;;19.37;39.53
61345;BME280;47216;42.656;23.232;2023-03-25T13:15:15;93242.22;;;19.23;39.97
61345;BME280;47216;42.656;23.232;2023-03-25T13:17:47;93239.91;;;19.13;40.20
61345;BME280;47216;42.656;23.232;2023-03-25T13:20:17;93238.06;;;19.14;40.69
61345;BME280;47216;42.656;23.232;2023-03-25T13:22:48;93241.66;;;19.09;41.54
61345;BME280;47216;42.656;23.232;2023-03-25T13:25:23;93251.09;;;19.19;42.00
61345;BME280;47216;42.656;23.232;2023-03-25T13:27:53;93242.25;;;19.15;41.84
61345;BME280;47216;42.656;23.232;2023-03-25T13:30:27;93253.13;;;19.13;42.06
61345;BME280;47216;42.656;23.232;2023-03-25T13:33:00;93253.13;;;19.13;42.96
61345;BME280;47216;42.656;23.232;2023-03-25T13:35:37;93255.63;;;19.18;44.99